Latest Weather Observations for Mount Nowa Nowa

IDV60801

Issued at 6:32 pm EST Sunday 25 September 2016 (issued every 30 minutes, with the page automatically refreshed every 10 minutes)

About weather observations | Map of weather stations | Latest weather observations for VIC | Other Formats
Station Details ID: 084144 Name: MOUNT NOWA NOWA Lat: -37.69 Lon: 148.09 Height: 350.0 m
Data from the previous 72 hours. | See also: Recent months at Mount Nowa Nowa
Date/Time
EST
Temp
°C
App
Temp
°C
Dew
Point
°C
Rel
Hum
%
Delta-T
°C
Wind Press
QNH
hPa
Press
MSL
hPa
Rain since
9am
mm
Dir  Spd
km/h
Gust
km/h
Spd
kts
Gust
kts
25/06:30pm 9.1 7.3 5.5 78 1.7 WSW 4 7 2 4 - - 0.2
25/06:00pm 9.3 7.2 6.0 80 1.5 WSW 6 9 3 5 - - 0.2
25/05:30pm 9.6 7.4 5.4 75 1.9 WSW 6 11 3 6 - - 0.2
25/05:00pm 9.6 7.8 7.2 85 1.2 W 6 17 3 9 - - 0.2
25/04:30pm 9.6 8.6 7.2 85 1.2 SSW 2 7 1 4 - - 0.2
25/04:00pm 9.6 8.6 7.4 86 1.1 S 2 6 1 3 - - 0.2
25/03:30pm 9.7 8.4 7.8 88 0.9 WSW 4 9 2 5 - - 0.2
25/03:00pm 9.3 7.6 7.6 89 0.8 WSW 6 13 3 7 - - 0.2
25/02:30pm 10.6 8.8 7.1 79 1.7 SW 6 11 3 6 - - 0.2
25/02:00pm 10.5 8.7 7.9 84 1.3 SW 7 19 4 10 - - 0.2
25/01:30pm 11.2 8.9 7.3 77 1.9 WSW 9 20 5 11 - - 0.2
25/01:00pm 10.5 9.0 8.4 87 1.0 W 6 13 3 7 - - 0.2
25/12:30pm 9.7 7.7 8.6 93 0.5 SW 9 20 5 11 - - 0.2
25/12:00pm 9.7 8.2 8.6 93 0.5 W 6 9 3 5 - - 0.2
25/11:30am 9.6 7.9 8.5 93 0.5 W 7 15 4 8 - - 0.2
25/11:00am 9.0 6.5 8.2 95 0.4 WSW 11 24 6 13 - - 0.2
25/10:30am 9.5 7.4 8.3 92 0.6 WSW 9 19 5 10 - - 0.2
25/10:00am 9.6 8.2 9.0 96 0.3 W 6 11 3 6 - - 0.2
25/09:30am 9.6 8.1 9.0 96 0.3 W 7 20 4 11 - - 0.2
25/09:00am 9.4 7.4 8.6 95 0.4 WSW 9 20 5 11 - - 1.8
25/08:30am 9.9 7.5 8.5 91 0.7 WSW 11 19 6 10 - - 1.8
25/08:00am 10.0 7.5 8.4 90 0.8 WSW 11 28 6 15 - - 1.8
25/07:30am 10.2 8.0 8.0 86 1.1 WSW 9 20 5 11 - - 1.8
25/07:00am 10.5 8.2 7.4 81 1.5 W 9 17 5 9 - - 1.8
25/06:30am 10.5 8.5 7.2 80 1.6 W 7 15 4 8 - - 1.8
25/06:00am 10.0 8.0 7.1 82 1.4 W 7 13 4 7 - - 1.8
25/05:30am 9.9 7.9 7.2 83 1.3 W 7 11 4 6 - - 1.8
25/05:00am 9.4 7.8 8.2 92 0.6 WNW 6 11 3 6 - - 1.8
25/04:30am 10.6 8.5 8.4 86 1.1 NW 9 15 5 8 - - 1.8
25/04:00am 11.1 8.6 8.3 83 1.4 NW 11 15 6 8 - - 1.8
25/03:30am 11.3 8.3 7.8 79 1.7 NNW 13 19 7 10 - - 1.8
25/03:00am 11.3 8.8 8.2 81 1.5 NNW 11 17 6 9 - - 1.8
25/02:30am 11.2 8.6 7.9 80 1.6 NNW 11 17 6 9 - - 1.6
25/02:00am 10.6 9.5 8.4 86 1.1 WNW 4 7 2 4 - - 1.6
25/01:30am 11.4 9.6 8.1 80 1.6 WSW 7 15 4 8 - - 1.6
25/01:00am 11.4 9.7 8.4 82 1.5 W 7 9 4 5 - - 1.6
25/12:30am 11.5 10.0 8.4 81 1.6 W 6 9 3 5 - - 1.4
25/12:00am 12.5 10.3 7.8 73 2.3 W 9 15 5 8 - - 1.0
 
Date/Time
EST
Temp
°C
App
Temp
°C
Dew
Point
°C
Rel
Hum
%
Delta-T
°C
Wind Press
QNH
hPa
Press
MSL
hPa
Rain since
9am
mm
Dir  Spd
km/h
Gust
km/h
Spd
kts
Gust
kts
24/11:30pm 12.4 10.7 7.5 72 2.4 WNW 6 11 3 6 - - 1.0
24/11:00pm 13.0 11.1 6.8 66 3.0 WNW 6 9 3 5 - - 0.0
24/10:30pm 12.7 10.8 6.7 67 2.9 WNW 6 11 3 6 - - 0.0
24/10:00pm 14.1 11.5 6.0 58 3.9 NW 9 24 5 13 - - 0.0
24/09:30pm 14.6 12.6 6.2 57 4.1 NW 6 9 3 5 - - 0.0
24/09:00pm 14.8 12.8 6.4 57 4.1 NW 6 9 3 5 - - 0.0
24/08:30pm 14.7 13.3 7.3 61 3.7 NW 4 6 2 3 - - 0.0
24/08:00pm 15.3 13.3 7.3 59 4.0 NW 7 11 4 6 - - 0.0
24/07:30pm 15.3 13.7 8.1 62 3.7 NW 6 9 3 5 - - 0.0
24/07:00pm 14.9 14.0 9.3 69 2.9 NE 4 9 2 5 - - 0.0
24/06:30pm 14.3 13.0 9.9 75 2.3 E 7 11 4 6 - - 0.0
24/06:00pm 14.5 13.3 10.3 76 2.2 E 7 13 4 7 - - 0.0
24/05:30pm 15.3 14.1 10.3 72 2.7 ESE 7 11 4 6 - - 0.0
24/05:00pm 15.5 14.4 10.7 73 2.6 ESE 7 13 4 7 - - 0.0
24/04:30pm 16.3 15.6 11.9 75 2.4 E 7 11 4 6 - - 0.0
24/04:00pm 17.3 16.5 11.6 69 3.2 E 7 11 4 6 - - 0.0
24/03:30pm 16.7 15.8 11.2 70 3.0 E 7 9 4 5 - - 0.0
24/03:00pm 17.7 17.1 11.7 68 3.3 E 6 11 3 6 - - 0.0
24/02:30pm 18.5 18.1 12.3 67 3.5 E 6 9 3 5 - - 0.0
24/02:00pm 18.2 17.9 11.3 64 3.8 E 4 9 2 5 - - 0.0
24/01:30pm 18.3 17.4 10.7 61 4.2 ESE 6 9 3 5 - - 0.0
24/01:00pm 18.3 18.2 10.7 61 4.2 SE 2 6 1 3 - - 0.0
24/12:30pm 18.7 18.5 10.3 58 4.6 ESE 2 6 1 3 - - 0.0
24/12:00pm 18.0 17.7 10.1 60 4.3 E 2 7 1 4 - - 0.0
24/11:30am 17.8 17.0 9.7 59 4.3 NNW 4 7 2 4 - - 0.0
24/11:00am 17.7 17.5 10.3 62 4.0 NW 2 7 1 4 - - 0.0
24/10:30am 17.8 17.5 10.2 61 4.1 NNE 2 9 1 5 - - 0.0
24/10:00am 15.9 15.2 10.0 68 3.1 NW 4 6 2 3 - - 0.0
24/09:30am 15.0 13.8 9.6 70 2.8 NNW 6 11 3 6 - - 0.0
24/09:00am 13.9 12.4 9.1 73 2.5 NNW 7 13 4 7 - - 0.0
24/08:30am 12.9 10.8 8.4 74 2.3 NNW 9 17 5 9 - - 0.0
24/08:00am 11.4 8.4 7.5 77 1.9 NNW 13 20 7 11 - - 0.0
24/07:30am 11.1 7.6 7.2 77 1.9 NNW 15 28 8 15 - - 0.0
24/07:00am 11.1 8.0 7.2 77 1.9 N 13 24 7 13 - - 0.0
24/06:30am 10.7 7.1 6.8 77 1.9 N 15 22 8 12 - - 0.0
24/06:00am 10.6 7.5 7.3 80 1.6 NNW 13 22 7 12 - - 0.0
24/05:30am 10.2 7.5 7.3 82 1.4 N 11 20 6 11 - - 0.0
24/05:00am 10.4 8.1 7.5 82 1.4 NNW 9 19 5 10 - - 0.0
24/04:30am 9.8 7.0 7.1 83 1.3 N 11 19 6 10 - - 0.0
24/04:00am 10.0 6.9 7.1 82 1.4 N 13 24 7 13 - - 0.0
24/03:30am 9.9 7.9 7.3 84 1.3 NNE 7 17 4 9 - - 0.0
24/03:00am 9.4 7.4 7.2 86 1.1 NNE 7 13 4 7 - - 0.0
24/02:30am 9.8 7.8 7.2 84 1.3 NNE 7 13 4 7 - - 0.0
24/02:00am 9.9 8.2 7.5 85 1.2 NNE 6 9 3 5 - - 0.0
24/01:30am 10.2 8.5 7.6 84 1.3 NE 6 9 3 5 - - 0.0
24/01:00am 10.7 9.1 7.9 83 1.4 NNE 6 11 3 6 - - 0.0
24/12:30am 10.2 8.6 8.0 86 1.1 NE 6 9 3 5 - - 0.0
24/12:00am 10.3 8.5 8.1 86 1.1 ENE 7 11 4 6 - - 0.0
 
Date/Time
EST
Temp
°C
App
Temp
°C
Dew
Point
°C
Rel
Hum
%
Delta-T
°C
Wind Press
QNH
hPa
Press
MSL
hPa
Rain since
9am
mm
Dir  Spd
km/h
Gust
km/h
Spd
kts
Gust
kts
23/11:30pm 10.3 8.2 8.1 86 1.1 E 9 15 5 8 - - 0.0
23/11:00pm 9.9 7.4 8.0 88 0.9 E 11 17 6 9 - - 0.0
23/10:30pm 9.8 6.9 8.2 90 0.8 E 13 19 7 10 - - 0.0
23/10:00pm 9.5 7.0 8.4 93 0.5 E 11 17 6 9 - - 0.0
23/09:30pm 9.1 7.1 8.6 97 0.2 E 9 15 5 8 - - 0.0
23/09:00pm 9.1 6.7 8.8 98 0.1 E 11 19 6 10 - - 0.0
23/08:30pm 8.9 6.9 8.6 98 0.1 E 9 15 5 8 - - 0.0
23/08:00pm 9.1 7.1 8.8 98 0.1 E 9 13 5 7 - - 0.0
23/07:30pm 9.1 6.7 8.8 98 0.1 E 11 17 6 9 - - 0.0
23/07:00pm 9.2 6.8 8.7 97 0.2 E 11 20 6 11 - - 0.0
23/06:30pm 9.5 7.6 8.9 96 0.3 E 9 13 5 7 - - 0.0
23/06:00pm 10.2 8.3 9.1 93 0.6 ESE 9 17 5 9 - - 0.0
23/05:30pm 11.4 10.2 9.5 88 1.0 ESE 6 11 3 6 - - 0.0
23/05:00pm 11.7 10.6 9.9 89 0.9 E 6 11 3 6 - - 0.0
23/04:30pm 11.6 10.8 9.7 88 1.0 E 4 9 2 5 - - 0.0
23/04:00pm 11.8 10.7 10.0 89 0.9 ESE 6 7 3 4 - - 0.0
23/03:30pm 12.1 11.8 10.0 87 1.1 ESE 2 6 1 3 - - 0.0
23/03:00pm 13.0 12.5 9.3 78 1.9 E 2 4 1 2 - - 0.0
23/02:30pm 12.4 12.1 8.7 78 1.9 CALM 0 2 0 1 - - 0.0
23/02:00pm 13.0 12.5 9.3 78 1.9 WSW 2 4 1 2 - - 0.0
23/01:30pm 12.3 11.7 9.1 81 1.6 S 2 4 1 2 - - 0.0
23/01:00pm 12.0 11.5 9.2 83 1.4 WSW 2 6 1 3 - - 0.0
23/12:30pm 12.1 11.7 9.8 86 1.2 WSW 2 6 1 3 - - 0.0
23/12:00pm 11.7 10.7 10.4 92 0.7 WSW 6 9 3 5 - - 0.0
23/11:30am 10.7 9.7 10.2 97 0.3 WSW 6 11 3 6 - - 0.0
23/11:00am 10.1 9.4 10.0 99 0.1 W 4 7 2 4 - - 0.0
23/10:30am 9.8 9.0 9.7 99 0.1 W 4 6 2 3 - - 0.0
23/10:00am 9.6 8.4 9.5 99 0.1 W 6 9 3 5 - - 0.0
23/09:30am 9.3 8.0 9.2 99 0.1 W 6 9 3 5 - - 0.0
23/09:00am 8.7 7.2 8.6 99 0.0 W 6 13 3 7 - - 30.6
23/08:30am 8.3 6.6 8.2 99 0.0 W 7 13 4 7 - - 30.6
23/08:00am 7.9 6.1 7.8 99 0.0 W 7 15 4 8 - - 30.6
23/07:30am 7.8 5.9 7.7 99 0.0 W 7 15 4 8 - - 30.6
23/07:00am 7.5 5.2 7.4 99 0.0 W 9 17 5 9 - - 30.6
23/06:30am 7.4 5.1 7.3 99 0.0 W 9 15 5 8 - - 30.6
23/06:00am 7.3 4.6 7.2 99 0.0 W 11 20 6 11 - - 30.6
23/05:30am 7.4 4.7 7.3 99 0.0 W 11 22 6 12 - - 30.6
23/05:00am 7.4 5.1 7.3 99 0.0 W 9 19 5 10 - - 30.6
23/04:30am 7.3 4.6 7.2 99 0.0 W 11 19 6 10 - - 30.6
23/04:00am 7.4 4.7 7.3 99 0.0 W 11 24 6 13 - - 30.6
23/03:30am 7.5 4.8 7.4 99 0.0 W 11 19 6 10 - - 30.6
23/03:00am 7.5 4.8 7.4 99 0.0 W 11 20 6 11 - - 30.4
23/02:30am 7.6 4.9 7.5 99 0.0 W 11 20 6 11 - - 30.4
23/02:00am 7.7 5.4 7.6 99 0.0 W 9 17 5 9 - - 30.4
23/01:30am 7.7 5.1 7.6 99 0.0 W 11 22 6 12 - - 30.4
23/01:00am 7.7 5.1 7.6 99 0.0 W 11 20 6 11 - - 30.4
23/12:30am 7.8 4.8 7.7 99 0.0 W 13 20 7 11 - - 30.4
23/12:00am 7.9 4.9 7.8 99 0.0 W 13 24 7 13 - - 30.4
 
Date/Time
EST
Temp
°C
App
Temp
°C
Dew
Point
°C
Rel
Hum
%
Delta-T
°C
Wind Press
QNH
hPa
Press
MSL
hPa
Rain since
9am
mm
Dir  Spd
km/h
Gust
km/h
Spd
kts
Gust
kts
22/11:30pm 8.0 4.7 7.9 99 0.0 W 15 28 8 15 - - 30.4
22/11:00pm 8.1 5.2 8.0 99 0.0 W 13 24 7 13 - - 30.0
22/10:30pm 8.2 5.3 8.1 99 0.0 WSW 13 26 7 14 - - 29.6
22/10:00pm 8.3 5.4 8.2 99 0.0 W 13 24 7 13 - - 29.6
22/09:30pm 8.5 5.7 8.4 99 0.0 WSW 13 26 7 14 - - 29.6
22/09:00pm 8.9 6.2 8.8 99 0.0 W 13 22 7 12 - - 29.4
22/08:30pm 9.2 6.9 9.1 99 0.1 WSW 11 28 6 15 - - 29.4
22/08:00pm 9.3 7.1 9.2 99 0.1 WSW 11 19 6 10 - - 29.0
22/07:30pm 9.3 6.7 9.2 99 0.1 W 13 24 7 13 - - 28.8
22/07:00pm 9.4 6.8 9.3 99 0.1 WSW 13 26 7 14 - - 28.8

Other Formats:

Comma delimited format used in spreadsheet applications
http://www.bom.gov.au/fwo/IDV60801/IDV60801.94930.axf

JavaScript Object Notation format (JSON) in row-major order
http://www.bom.gov.au/fwo/IDV60801/IDV60801.94930.json